sensor_id;sensor_type;location;lat;lon;timestamp;pressure;altitude;pressure_sealevel;temperature;humidity
20889;BME280;10604;51.976;7.594;2022-10-16T00:00:37;100304.94;;;30.32;35.27
20889;BME280;10604;51.976;7.594;2022-10-16T00:03:03;100308.44;;;30.41;34.98
20889;BME280;10604;51.976;7.594;2022-10-16T00:05:29;100310.72;;;30.29;35.03
20889;BME280;10604;51.976;7.594;2022-10-16T00:07:55;100315.06;;;30.38;35.14
20889;BME280;10604;51.976;7.594;2022-10-16T00:10:20;100313.16;;;30.24;35.35
20889;BME280;10604;51.976;7.594;2022-10-16T00:12:46;100306.38;;;30.20;35.38
20889;BME280;10604;51.976;7.594;2022-10-16T00:15:11;100307.09;;;30.14;35.93
20889;BME280;10604;51.976;7.594;2022-10-16T00:17:37;100308.16;;;30.50;34.98
20889;BME280;10604;51.976;7.594;2022-10-16T00:20:03;100303.94;;;30.62;34.89
20889;BME280;10604;51.976;7.594;2022-10-16T00:22:28;100307.81;;;30.53;34.64
20889;BME280;10604;51.976;7.594;2022-10-16T00:24:54;100312.59;;;30.66;34.66
20889;BME280;10604;51.976;7.594;2022-10-16T00:27:19;100312.03;;;30.56;35.38
20889;BME280;10604;51.976;7.594;2022-10-16T00:29:44;100303.41;;;30.96;34.34
20889;BME280;10604;51.976;7.594;2022-10-16T00:32:10;100307.09;;;30.89;34.17
20889;BME280;10604;51.976;7.594;2022-10-16T00:37:03;100316.88;;;30.83;34.11
20889;BME280;10604;51.976;7.594;2022-10-16T00:39:28;100313.66;;;30.80;34.11
20889;BME280;10604;51.976;7.594;2022-10-16T00:41:53;100312.13;;;30.62;34.41
20889;BME280;10604;51.976;7.594;2022-10-16T00:44:42;100308.88;;;30.44;35.20
20889;BME280;10604;51.976;7.594;2022-10-16T00:47:10;100310.00;;;29.98;35.60
20889;BME280;10604;51.976;7.594;2022-10-16T00:49:38;100315.72;;;30.25;35.29
20889;BME280;10604;51.976;7.594;2022-10-16T00:52:03;100322.84;;;30.79;34.54
20889;BME280;10604;51.976;7.594;2022-10-16T00:54:32;100326.31;;;30.72;34.14
20889;BME280;10604;51.976;7.594;2022-10-16T00:57:03;100328.09;;;30.65;34.75
20889;BME280;10604;51.976;7.594;2022-10-16T01:01:56;100321.09;;;30.48;35.06
20889;BME280;10604;51.976;7.594;2022-10-16T01:04:24;100325.75;;;30.25;35.43
20889;BME280;10604;51.976;7.594;2022-10-16T01:12:17;100315.44;;;30.35;34.61
20889;BME280;10604;51.976;7.594;2022-10-16T01:14:54;100323.31;;;30.53;34.86
20889;BME280;10604;51.976;7.594;2022-10-16T01:22:24;100325.13;;;30.15;34.79
20889;BME280;10604;51.976;7.594;2022-10-16T01:24:53;100321.38;;;30.39;34.47
20889;BME280;10604;51.976;7.594;2022-10-16T01:27:31;100319.91;;;30.28;34.44
20889;BME280;10604;51.976;7.594;2022-10-16T01:30:18;100325.47;;;30.57;34.21
20889;BME280;10604;51.976;7.594;2022-10-16T01:32:50;100322.84;;;30.41;34.40
20889;BME280;10604;51.976;7.594;2022-10-16T01:35:21;100318.88;;;30.52;34.07
20889;BME280;10604;51.976;7.594;2022-10-16T01:37:53;100320.22;;;30.33;34.74
20889;BME280;10604;51.976;7.594;2022-10-16T01:40:23;100316.28;;;29.98;35.14
20889;BME280;10604;51.976;7.594;2022-10-16T01:43:21;100319.22;;;30.11;35.40
20889;BME280;10604;51.976;7.594;2022-10-16T01:45:48;100316.91;;;30.23;34.75
20889;BME280;10604;51.976;7.594;2022-10-16T01:48:16;100315.94;;;30.16;34.89
20889;BME280;10604;51.976;7.594;2022-10-16T01:50:44;100316.19;;;30.06;34.52
20889;BME280;10604;51.976;7.594;2022-10-16T01:53:14;100306.53;;;30.04;34.55
20889;BME280;10604;51.976;7.594;2022-10-16T01:55:44;100307.84;;;30.08;34.52
20889;BME280;10604;51.976;7.594;2022-10-16T01:58:12;100310.38;;;30.32;34.49
20889;BME280;10604;51.976;7.594;2022-10-16T02:00:39;100306.78;;;29.94;34.31
20889;BME280;10604;51.976;7.594;2022-10-16T02:03:06;100308.66;;;29.85;34.09
20889;BME280;10604;51.976;7.594;2022-10-16T02:05:42;100324.63;;;29.88;34.26
20889;BME280;10604;51.976;7.594;2022-10-16T02:08:10;100325.47;;;29.66;35.24
20889;BME280;10604;51.976;7.594;2022-10-16T02:10:36;100327.69;;;29.93;34.53
20889;BME280;10604;51.976;7.594;2022-10-16T02:13:19;100325.38;;;29.82;34.60
20889;BME280;10604;51.976;7.594;2022-10-16T02:15:47;100326.44;;;29.73;34.45
20889;BME280;10604;51.976;7.594;2022-10-16T02:18:12;100317.50;;;29.87;34.57
20889;BME280;10604;51.976;7.594;2022-10-16T02:20:54;100321.34;;;29.70;34.61
20889;BME280;10604;51.976;7.594;2022-10-16T02:23:43;100322.06;;;29.64;34.56
20889;BME280;10604;51.976;7.594;2022-10-16T02:26:13;100313.94;;;29.87;34.35
20889;BME280;10604;51.976;7.594;2022-10-16T02:28:45;100319.69;;;29.69;34.34
20889;BME280;10604;51.976;7.594;2022-10-16T02:31:16;100329.63;;;29.54;34.64
20889;BME280;10604;51.976;7.594;2022-10-16T02:33:45;100329.97;;;29.51;35.04
20889;BME280;10604;51.976;7.594;2022-10-16T02:36:11;100324.06;;;29.47;34.57
20889;BME280;10604;51.976;7.594;2022-10-16T02:38:38;100329.38;;;29.33;34.63
20889;BME280;10604;51.976;7.594;2022-10-16T02:41:05;100333.53;;;29.12;34.98
20889;BME280;10604;51.976;7.594;2022-10-16T02:43:31;100339.59;;;29.23;34.79
20889;BME280;10604;51.976;7.594;2022-10-16T02:45:56;100339.16;;;29.50;34.75
20889;BME280;10604;51.976;7.594;2022-10-16T02:48:22;100338.50;;;29.48;35.43
20889;BME280;10604;51.976;7.594;2022-10-16T02:50:47;100349.56;;;29.38;34.75
20889;BME280;10604;51.976;7.594;2022-10-16T02:53:12;100344.19;;;29.61;34.33
20889;BME280;10604;51.976;7.594;2022-10-16T02:55:38;100350.13;;;29.26;35.23
20889;BME280;10604;51.976;7.594;2022-10-16T02:58:03;100345.03;;;29.23;35.43
20889;BME280;10604;51.976;7.594;2022-10-16T03:00:28;100341.09;;;29.33;34.66
20889;BME280;10604;51.976;7.594;2022-10-16T03:02:54;100341.72;;;29.04;35.33
20889;BME280;10604;51.976;7.594;2022-10-16T03:05:19;100343.03;;;29.08;34.93
20889;BME280;10604;51.976;7.594;2022-10-16T03:07:44;100337.56;;;29.25;35.07
20889;BME280;10604;51.976;7.594;2022-10-16T03:10:10;100333.59;;;29.35;34.91
20889;BME280;10604;51.976;7.594;2022-10-16T03:12:35;100330.41;;;29.24;34.80
20889;BME280;10604;51.976;7.594;2022-10-16T03:15:01;100338.88;;;29.29;34.97
20889;BME280;10604;51.976;7.594;2022-10-16T03:17:26;100339.59;;;29.23;35.19
20889;BME280;10604;51.976;7.594;2022-10-16T03:19:52;100332.28;;;28.76;35.70
20889;BME280;10604;51.976;7.594;2022-10-16T03:22:17;100338.25;;;29.18;35.02
20889;BME280;10604;51.976;7.594;2022-10-16T03:24:43;100347.88;;;28.82;35.15
20889;BME280;10604;51.976;7.594;2022-10-16T03:27:08;100347.88;;;28.82;35.71
20889;BME280;10604;51.976;7.594;2022-10-16T03:29:34;100355.31;;;28.96;35.75
20889;BME280;10604;51.976;7.594;2022-10-16T03:31:59;100353.94;;;28.92;35.76
20889;BME280;10604;51.976;7.594;2022-10-16T03:34:25;100348.72;;;28.58;36.17
20889;BME280;10604;51.976;7.594;2022-10-16T03:36:51;100342.09;;;28.85;35.92
20889;BME280;10604;51.976;7.594;2022-10-16T03:39:17;100345.84;;;28.84;36.03
20889;BME280;10604;51.976;7.594;2022-10-16T03:41:43;100348.03;;;28.89;35.56
20889;BME280;10604;51.976;7.594;2022-10-16T03:44:08;100341.75;;;28.88;35.61
20889;BME280;10604;51.976;7.594;2022-10-16T03:46:34;100342.75;;;28.95;35.77
20889;BME280;10604;51.976;7.594;2022-10-16T03:48:59;100344.31;;;28.65;36.14
20889;BME280;10604;51.976;7.594;2022-10-16T03:51:24;100342.41;;;28.98;35.48
20889;BME280;10604;51.976;7.594;2022-10-16T03:53:49;100338.31;;;29.02;35.55
20889;BME280;10604;51.976;7.594;2022-10-16T03:56:15;100335.56;;;29.10;34.90
20889;BME280;10604;51.976;7.594;2022-10-16T03:58:41;100335.31;;;28.89;35.57
20889;BME280;10604;51.976;7.594;2022-10-16T04:01:06;100338.31;;;29.02;34.76
20889;BME280;10604;51.976;7.594;2022-10-16T04:03:32;100345.78;;;28.92;35.49
20889;BME280;10604;51.976;7.594;2022-10-16T04:05:57;100334.13;;;28.84;35.47
20889;BME280;10604;51.976;7.594;2022-10-16T04:08:22;100350.56;;;28.90;35.17
20889;BME280;10604;51.976;7.594;2022-10-16T04:10:48;100346.84;;;28.91;34.92
20889;BME280;10604;51.976;7.594;2022-10-16T04:13:13;100360.59;;;28.81;35.04
20889;BME280;10604;51.976;7.594;2022-10-16T04:15:39;100353.31;;;28.66;35.46
20889;BME280;10604;51.976;7.594;2022-10-16T04:18:04;100355.03;;;28.75;35.00
20889;BME280;10604;51.976;7.594;2022-10-16T04:20:30;100363.47;;;28.72;35.00
20889;BME280;10604;51.976;7.594;2022-10-16T04:22:56;100368.91;;;28.72;35.30
20889;BME280;10604;51.976;7.594;2022-10-16T04:25:21;100372.66;;;28.22;36.05
20889;BME280;10604;51.976;7.594;2022-10-16T04:27:47;100369.97;;;28.47;35.75
20889;BME280;10604;51.976;7.594;2022-10-16T04:30:13;100368.94;;;28.39;35.77
20889;BME280;10604;51.976;7.594;2022-10-16T04:32:39;100366.84;;;28.09;36.19
20889;BME280;10604;51.976;7.594;2022-10-16T04:35:05;100367.56;;;28.43;35.68
20889;BME280;10604;51.976;7.594;2022-10-16T04:37:31;100378.25;;;28.45;35.42
20889;BME280;10604;51.976;7.594;2022-10-16T04:39:56;100379.47;;;28.26;35.76
20889;BME280;10604;51.976;7.594;2022-10-16T04:42:21;100377.78;;;28.41;35.53
20889;BME280;10604;51.976;7.594;2022-10-16T04:44:47;100387.75;;;28.57;35.09
20889;BME280;10604;51.976;7.594;2022-10-16T04:47:13;100389.28;;;28.43;35.65
20889;BME280;10604;51.976;7.594;2022-10-16T04:49:38;100388.63;;;28.41;35.13
20889;BME280;10604;51.976;7.594;2022-10-16T04:52:04;100384.91;;;28.34;35.09
20889;BME280;10604;51.976;7.594;2022-10-16T04:54:30;100393.69;;;28.28;35.09
20889;BME280;10604;51.976;7.594;2022-10-16T04:56:55;100387.91;;;28.15;35.89
20889;BME280;10604;51.976;7.594;2022-10-16T04:59:20;100384.53;;;28.29;35.92
20889;BME280;10604;51.976;7.594;2022-10-16T05:01:46;100379.28;;;28.36;35.99
20889;BME280;10604;51.976;7.594;2022-10-16T05:04:12;100393.03;;;28.34;35.33
20889;BME280;10604;51.976;7.594;2022-10-16T05:06:38;100391.25;;;28.01;36.74
20889;BME280;10604;51.976;7.594;2022-10-16T05:09:04;100397.38;;;28.11;36.19
20889;BME280;10604;51.976;7.594;2022-10-16T05:11:30;100398.09;;;28.21;36.15
20889;BME280;10604;51.976;7.594;2022-10-16T05:13:56;100403.66;;;28.03;36.32
20889;BME280;10604;51.976;7.594;2022-10-16T05:16:21;100399.47;;;28.25;35.79
20889;BME280;10604;51.976;7.594;2022-10-16T05:18:46;100395.41;;;28.46;35.63
20889;BME280;10604;51.976;7.594;2022-10-16T05:21:12;100402.69;;;28.53;35.53
20889;BME280;10604;51.976;7.594;2022-10-16T05:23:37;100403.03;;;28.26;35.57
20889;BME280;10604;51.976;7.594;2022-10-16T05:26:03;100404.91;;;28.41;35.10
20889;BME280;10604;51.976;7.594;2022-10-16T05:28:29;100411.16;;;28.74;34.83
20889;BME280;10604;51.976;7.594;2022-10-16T05:30:56;100418.13;;;28.36;35.28
20889;BME280;10604;51.976;7.594;2022-10-16T05:33:23;100418.63;;;28.64;35.58
20889;BME280;10604;51.976;7.594;2022-10-16T05:35:49;100407.97;;;28.38;35.51
20889;BME280;10604;51.976;7.594;2022-10-16T05:38:18;100420.84;;;28.20;36.15
20889;BME280;10604;51.976;7.594;2022-10-16T05:40:50;100427.97;;;28.46;35.45
20889;BME280;10604;51.976;7.594;2022-10-16T05:43:16;100432.75;;;27.77;37.05
20889;BME280;10604;51.976;7.594;2022-10-16T05:45:41;100434.25;;;27.80;37.04
20889;BME280;10604;51.976;7.594;2022-10-16T05:48:07;100432.88;;;27.67;37.23
20889;BME280;10604;51.976;7.594;2022-10-16T05:50:32;100433.22;;;28.23;36.65
20889;BME280;10604;51.976;7.594;2022-10-16T05:52:58;100429.91;;;28.03;37.09
20889;BME280;10604;51.976;7.594;2022-10-16T05:55:23;100439.88;;;28.61;36.13
20889;BME280;10604;51.976;7.594;2022-10-16T05:57:48;100439.22;;;28.75;35.93
20889;BME280;10604;51.976;7.594;2022-10-16T06:00:14;100449.88;;;28.68;35.87
20889;BME280;10604;51.976;7.594;2022-10-16T06:02:39;100452.75;;;28.34;36.18
20889;BME280;10604;51.976;7.594;2022-10-16T06:05:04;100453.66;;;28.09;37.09
20889;BME280;10604;51.976;7.594;2022-10-16T06:07:34;100448.84;;;28.94;35.77
20889;BME280;10604;51.976;7.594;2022-10-16T06:10:00;100459.88;;;29.08;35.71
20889;BME280;10604;51.976;7.594;2022-10-16T06:12:26;100458.84;;;29.26;35.35
20889;BME280;10604;51.976;7.594;2022-10-16T06:14:52;100459.16;;;29.23;35.33
20889;BME280;10604;51.976;7.594;2022-10-16T06:17:17;100467.31;;;29.31;35.13
20889;BME280;10604;51.976;7.594;2022-10-16T06:19:42;100467.66;;;29.44;34.69
20889;BME280;10604;51.976;7.594;2022-10-16T06:22:08;100478.88;;;29.41;34.34
20889;BME280;10604;51.976;7.594;2022-10-16T06:24:33;100479.09;;;28.91;35.74
20889;BME280;10604;51.976;7.594;2022-10-16T06:26:58;100491.09;;;29.45;34.72
20889;BME280;10604;51.976;7.594;2022-10-16T06:29:24;100495.13;;;29.57;34.70
20889;BME280;10604;51.976;7.594;2022-10-16T06:31:49;100496.72;;;29.19;34.90
20889;BME280;10604;51.976;7.594;2022-10-16T06:34:14;100496.53;;;29.20;35.12
20889;BME280;10604;51.976;7.594;2022-10-16T06:36:40;100512.47;;;29.56;35.06
20889;BME280;10604;51.976;7.594;2022-10-16T06:39:06;100514.50;;;29.62;34.60
20889;BME280;10604;51.976;7.594;2022-10-16T06:41:33;100522.31;;;29.57;34.52
20889;BME280;10604;51.976;7.594;2022-10-16T06:43:58;100527.13;;;29.47;34.64
20889;BME280;10604;51.976;7.594;2022-10-16T06:46:24;100521.81;;;29.62;34.81
20889;BME280;10604;51.976;7.594;2022-10-16T06:48:51;100526.13;;;29.40;34.97
20889;BME280;10604;51.976;7.594;2022-10-16T06:51:18;100520.81;;;29.30;35.53
20889;BME280;10604;51.976;7.594;2022-10-16T06:53:48;100533.69;;;29.69;34.77
20889;BME280;10604;51.976;7.594;2022-10-16T06:56:21;100543.34;;;29.79;34.73
20889;BME280;10604;51.976;7.594;2022-10-16T06:58:48;100542.72;;;29.61;34.61
20889;BME280;10604;51.976;7.594;2022-10-16T07:01:14;100537.19;;;29.85;34.63
20889;BME280;10604;51.976;7.594;2022-10-16T07:03:41;100541.41;;;30.04;34.99
20889;BME280;10604;51.976;7.594;2022-10-16T07:06:09;100544.94;;;30.13;34.61
20889;BME280;10604;51.976;7.594;2022-10-16T07:08:37;100535.94;;;29.33;35.79
20889;BME280;10604;51.976;7.594;2022-10-16T07:11:06;100555.41;;;29.93;34.95
20889;BME280;10604;51.976;7.594;2022-10-16T07:13:35;100562.38;;;29.95;34.55
20889;BME280;10604;51.976;7.594;2022-10-16T07:16:05;100571.25;;;29.73;35.32
20889;BME280;10604;51.976;7.594;2022-10-16T07:18:31;100565.31;;;29.70;35.16
20889;BME280;10604;51.976;7.594;2022-10-16T07:21:06;100576.06;;;29.55;35.64
20889;BME280;10604;51.976;7.594;2022-10-16T07:23:32;100586.81;;;28.58;36.74
20889;BME280;10604;51.976;7.594;2022-10-16T07:25:57;100589.97;;;29.60;35.88
20889;BME280;10604;51.976;7.594;2022-10-16T07:28:23;100593.00;;;29.73;35.54
20889;BME280;10604;51.976;7.594;2022-10-16T07:30:48;100603.91;;;29.57;35.73
20889;BME280;10604;51.976;7.594;2022-10-16T07:33:14;100610.44;;;30.19;35.07
20889;BME280;10604;51.976;7.594;2022-10-16T07:35:48;100613.41;;;29.20;36.07
20889;BME280;10604;51.976;7.594;2022-10-16T07:38:13;100618.31;;;28.85;36.62
20889;BME280;10604;51.976;7.594;2022-10-16T07:40:39;100617.81;;;29.94;35.27
20889;BME280;10604;51.976;7.594;2022-10-16T07:43:04;100624.97;;;29.23;36.76
20889;BME280;10604;51.976;7.594;2022-10-16T07:45:30;100627.53;;;29.24;36.40
20889;BME280;10604;51.976;7.594;2022-10-16T07:47:55;100621.72;;;29.84;35.51
20889;BME280;10604;51.976;7.594;2022-10-16T07:50:21;100628.94;;;30.24;34.90
20889;BME280;10604;51.976;7.594;2022-10-16T07:52:46;100639.56;;;29.94;35.42
20889;BME280;10604;51.976;7.594;2022-10-16T07:55:11;100625.97;;;29.70;35.90
20889;BME280;10604;51.976;7.594;2022-10-16T07:57:37;100632.34;;;30.65;34.36
20889;BME280;10604;51.976;7.594;2022-10-16T08:00:02;100640.78;;;30.47;34.94
20889;BME280;10604;51.976;7.594;2022-10-16T08:02:28;100646.44;;;30.99;34.05
20889;BME280;10604;51.976;7.594;2022-10-16T08:04:53;100652.09;;;30.20;35.29
20889;BME280;10604;51.976;7.594;2022-10-16T08:07:18;100662.53;;;28.69;37.37
20889;BME280;10604;51.976;7.594;2022-10-16T08:09:44;100663.38;;;30.01;36.03
20889;BME280;10604;51.976;7.594;2022-10-16T08:12:09;100666.75;;;29.30;36.67
20889;BME280;10604;51.976;7.594;2022-10-16T08:14:35;100671.22;;;30.59;35.07
20889;BME280;10604;51.976;7.594;2022-10-16T08:17:01;100673.75;;;29.89;36.05
20889;BME280;10604;51.976;7.594;2022-10-16T08:19:27;100678.56;;;28.80;37.40
20889;BME280;10604;51.976;7.594;2022-10-16T08:21:53;100683.63;;;29.82;36.43
20889;BME280;10604;51.976;7.594;2022-10-16T08:24:18;100676.63;;;29.87;35.97
20889;BME280;10604;51.976;7.594;2022-10-16T08:26:43;100677.00;;;29.36;37.25
20889;BME280;10604;51.976;7.594;2022-10-16T08:29:09;100693.13;;;30.65;35.01
20889;BME280;10604;51.976;7.594;2022-10-16T08:31:34;100686.84;;;29.93;35.96
20889;BME280;10604;51.976;7.594;2022-10-16T08:33:59;100683.09;;;30.11;35.91
20889;BME280;10604;51.976;7.594;2022-10-16T08:36:25;100692.56;;;29.09;36.49
20889;BME280;10604;51.976;7.594;2022-10-16T08:38:50;100692.31;;;30.49;35.14
20889;BME280;10604;51.976;7.594;2022-10-16T08:50:08;100698.75;;;29.52;36.40
20889;BME280;10604;51.976;7.594;2022-10-16T08:52:35;100704.00;;;29.37;36.61
20889;BME280;10604;51.976;7.594;2022-10-16T08:55:04;100709.81;;;29.34;36.92
20889;BME280;10604;51.976;7.594;2022-10-16T08:57:30;100715.75;;;29.86;35.75
20889;BME280;10604;51.976;7.594;2022-10-16T09:00:08;100716.91;;;30.80;34.44
20889;BME280;10604;51.976;7.594;2022-10-16T09:11:17;100724.25;;;29.83;35.85
20889;BME280;10604;51.976;7.594;2022-10-16T09:16:34;100741.75;;;30.29;35.15
20889;BME280;10604;51.976;7.594;2022-10-16T09:21:36;100729.97;;;30.45;33.96
20889;BME280;10604;51.976;7.594;2022-10-16T09:24:16;100738.03;;;31.47;33.21
20889;BME280;10604;51.976;7.594;2022-10-16T09:26:42;100742.69;;;31.08;33.27
20889;BME280;10604;51.976;7.594;2022-10-16T09:29:12;100757.53;;;32.86;31.96
20889;BME280;10604;51.976;7.594;2022-10-16T09:31:38;100752.88;;;31.14;32.95
20889;BME280;10604;51.976;7.594;2022-10-16T09:34:05;100750.00;;;32.88;30.56
20889;BME280;10604;51.976;7.594;2022-10-16T09:36:39;100755.66;;;32.72;30.91
20889;BME280;10604;51.976;7.594;2022-10-16T09:39:08;100754.50;;;31.77;32.13
20889;BME280;10604;51.976;7.594;2022-10-16T09:41:36;100746.50;;;32.80;30.14
20889;BME280;10604;51.976;7.594;2022-10-16T09:44:05;100756.88;;;34.20;28.79
20889;BME280;10604;51.976;7.594;2022-10-16T09:46:38;100762.75;;;34.17;29.29
20889;BME280;10604;51.976;7.594;2022-10-16T09:49:24;100759.03;;;33.61;29.75
20889;BME280;10604;51.976;7.594;2022-10-16T09:51:51;100761.84;;;32.37;31.01
20889;BME280;10604;51.976;7.594;2022-10-16T09:54:20;100762.97;;;31.36;32.08
20889;BME280;10604;51.976;7.594;2022-10-16T09:56:47;100764.94;;;32.48;30.86
20889;BME280;10604;51.976;7.594;2022-10-16T09:59:22;100768.66;;;34.20;29.03
20889;BME280;10604;51.976;7.594;2022-10-16T10:01:54;100770.03;;;33.25;29.22
20889;BME280;10604;51.976;7.594;2022-10-16T10:04:22;100767.19;;;34.74;27.82
20889;BME280;10604;51.976;7.594;2022-10-16T10:06:49;100767.94;;;34.68;27.52
20889;BME280;10604;51.976;7.594;2022-10-16T10:11:50;100780.56;;;34.90;27.83
20889;BME280;10604;51.976;7.594;2022-10-16T10:14:32;100773.72;;;33.32;28.51
20889;BME280;10604;51.976;7.594;2022-10-16T10:17:27;100782.25;;;34.91;27.49
20889;BME280;10604;51.976;7.594;2022-10-16T10:19:58;100783.78;;;35.00;26.54
20889;BME280;10604;51.976;7.594;2022-10-16T10:28:04;100802.91;;;36.41;26.38
20889;BME280;10604;51.976;7.594;2022-10-16T10:30:49;100801.84;;;37.33;25.73
20889;BME280;10604;51.976;7.594;2022-10-16T10:33:31;100803.53;;;37.34;24.24
20889;BME280;10604;51.976;7.594;2022-10-16T10:39:06;100804.47;;;35.57;26.77
20889;BME280;10604;51.976;7.594;2022-10-16T10:50:07;100799.31;;;34.24;27.63
20889;BME280;10604;51.976;7.594;2022-10-16T10:52:47;100795.56;;;34.60;26.28
20889;BME280;10604;51.976;7.594;2022-10-16T10:55:20;100807.34;;;36.36;25.71
20889;BME280;10604;51.976;7.594;2022-10-16T11:06:21;100817.22;;;35.71;25.33
20889;BME280;10604;51.976;7.594;2022-10-16T11:11:23;100811.53;;;35.79;25.48
20889;BME280;10604;51.976;7.594;2022-10-16T11:16:43;100820.66;;;36.39;25.33
20889;BME280;10604;51.976;7.594;2022-10-16T11:19:19;100813.09;;;37.70;23.76
20889;BME280;10604;51.976;7.594;2022-10-16T11:21:51;100808.34;;;36.94;24.92
20889;BME280;10604;51.976;7.594;2022-10-16T11:24:23;100812.66;;;36.31;25.29
20889;BME280;10604;51.976;7.594;2022-10-16T11:26:53;100817.84;;;37.49;24.38
20889;BME280;10604;51.976;7.594;2022-10-16T11:29:24;100826.28;;;38.24;23.61
20889;BME280;10604;51.976;7.594;2022-10-16T11:31:57;100807.53;;;37.76;24.17
20889;BME280;10604;51.976;7.594;2022-10-16T11:34:38;100814.09;;;38.13;23.74
20889;BME280;10604;51.976;7.594;2022-10-16T11:37:14;100818.00;;;37.23;24.44
20889;BME280;10604;51.976;7.594;2022-10-16T11:39:43;100825.72;;;36.75;24.84
20889;BME280;10604;51.976;7.594;2022-10-16T11:42:19;100811.88;;;37.08;24.24
20889;BME280;10604;51.976;7.594;2022-10-16T11:47:45;100819.97;;;36.90;23.86
20889;BME280;10604;51.976;7.594;2022-10-16T11:52:51;100819.97;;;36.90;23.94
20889;BME280;10604;51.976;7.594;2022-10-16T11:55:27;100822.72;;;36.90;24.53
20889;BME280;10604;51.976;7.594;2022-10-16T11:58:29;100824.22;;;37.50;24.54
20889;BME280;10604;51.976;7.594;2022-10-16T12:06:36;100831.00;;;34.68;26.28
20889;BME280;10604;51.976;7.594;2022-10-16T12:09:03;100825.06;;;35.87;25.06
20889;BME280;10604;51.976;7.594;2022-10-16T12:14:19;100832.91;;;36.56;25.32
20889;BME280;10604;51.976;7.594;2022-10-16T12:19:21;100831.41;;;37.51;24.07
20889;BME280;10604;51.976;7.594;2022-10-16T12:21:48;100833.78;;;38.42;23.76
20889;BME280;10604;51.976;7.594;2022-10-16T12:24:33;100831.00;;;38.66;22.87
20889;BME280;10604;51.976;7.594;2022-10-16T12:26:59;100829.16;;;38.35;22.83
20889;BME280;10604;51.976;7.594;2022-10-16T12:29:30;100840.00;;;39.35;22.30
20889;BME280;10604;51.976;7.594;2022-10-16T12:31:57;100841.75;;;38.74;23.07
20889;BME280;10604;51.976;7.594;2022-10-16T12:34:29;100835.84;;;37.90;23.72
20889;BME280;10604;51.976;7.594;2022-10-16T12:37:09;100847.91;;;38.52;23.37
20889;BME280;10604;51.976;7.594;2022-10-16T12:39:35;100848.28;;;37.68;23.75
20889;BME280;10604;51.976;7.594;2022-10-16T12:42:20;100860.78;;;38.01;23.82
20889;BME280;10604;51.976;7.594;2022-10-16T12:44:46;100854.41;;;37.18;22.92
20889;BME280;10604;51.976;7.594;2022-10-16T12:52:58;100857.03;;;35.06;24.74
20889;BME280;10604;51.976;7.594;2022-10-16T12:55:24;100868.00;;;35.06;25.27
20889;BME280;10604;51.976;7.594;2022-10-16T12:58:21;100867.59;;;34.75;25.95
20889;BME280;10604;51.976;7.594;2022-10-16T13:00:59;100854.78;;;34.61;25.50
20889;BME280;10604;51.976;7.594;2022-10-16T13:22:12;100871.56;;;37.20;23.90
20889;BME280;10604;51.976;7.594;2022-10-16T13:27:18;100879.50;;;37.93;23.14
20889;BME280;10604;51.976;7.594;2022-10-16T13:29:52;100880.69;;;37.08;23.63
20889;BME280;10604;51.976;7.594;2022-10-16T13:32:19;100889.16;;;37.00;23.98
20889;BME280;10604;51.976;7.594;2022-10-16T13:34:46;100878.56;;;36.04;24.14
20889;BME280;10604;51.976;7.594;2022-10-16T13:37:18;100875.69;;;36.52;24.66
20889;BME280;10604;51.976;7.594;2022-10-16T13:39:43;100879.47;;;36.77;24.50
20889;BME280;10604;51.976;7.594;2022-10-16T13:44:53;100877.34;;;36.53;24.06
20889;BME280;10604;51.976;7.594;2022-10-16T13:47:27;100880.81;;;35.81;25.59
20889;BME280;10604;51.976;7.594;2022-10-16T13:50:04;100888.91;;;35.42;25.68
20889;BME280;10604;51.976;7.594;2022-10-16T13:52:30;100895.88;;;35.98;25.22
20889;BME280;10604;51.976;7.594;2022-10-16T13:54:55;100901.88;;;36.22;24.97
20889;BME280;10604;51.976;7.594;2022-10-16T13:57:23;100894.03;;;35.58;26.02
20889;BME280;10604;51.976;7.594;2022-10-16T13:59:49;100902.84;;;35.94;25.11
20889;BME280;10604;51.976;7.594;2022-10-16T14:02:25;100895.94;;;36.25;25.07
20889;BME280;10604;51.976;7.594;2022-10-16T14:04:52;100902.69;;;36.16;24.94
20889;BME280;10604;51.976;7.594;2022-10-16T14:07:23;100898.22;;;36.08;25.53
20889;BME280;10604;51.976;7.594;2022-10-16T14:09:51;100904.41;;;36.23;24.94
20889;BME280;10604;51.976;7.594;2022-10-16T14:12:17;100897.94;;;35.83;25.25
20889;BME280;10604;51.976;7.594;2022-10-16T14:14:47;100895.88;;;35.98;25.47
20889;BME280;10604;51.976;7.594;2022-10-16T14:17:25;100897.09;;;35.76;25.31
20889;BME280;10604;51.976;7.594;2022-10-16T14:19:53;100900.53;;;36.04;25.45
20889;BME280;10604;51.976;7.594;2022-10-16T14:24:54;100901.84;;;36.08;25.33
20889;BME280;10604;51.976;7.594;2022-10-16T14:27:33;100895.72;;;36.20;26.01
20889;BME280;10604;51.976;7.594;2022-10-16T14:32:41;100906.94;;;36.31;25.09
20889;BME280;10604;51.976;7.594;2022-10-16T14:35:30;100895.50;;;36.15;25.15
20889;BME280;10604;51.976;7.594;2022-10-16T14:37:56;100890.41;;;36.05;25.30
20889;BME280;10604;51.976;7.594;2022-10-16T14:40:25;100888.28;;;36.00;25.29
20889;BME280;10604;51.976;7.594;2022-10-16T14:42:52;100894.31;;;35.22;25.22
20889;BME280;10604;51.976;7.594;2022-10-16T14:45:20;100895.84;;;35.85;25.13
20889;BME280;10604;51.976;7.594;2022-10-16T14:47:55;100892.69;;;35.41;25.59
20889;BME280;10604;51.976;7.594;2022-10-16T14:50:22;100908.81;;;36.18;25.81
20889;BME280;10604;51.976;7.594;2022-10-16T14:52:47;100910.88;;;35.96;25.04
20889;BME280;10604;51.976;7.594;2022-10-16T14:55:13;100918.66;;;35.79;25.31
20889;BME280;10604;51.976;7.594;2022-10-16T14:57:39;100917.41;;;35.88;25.14
20889;BME280;10604;51.976;7.594;2022-10-16T15:02:41;100913.88;;;35.60;26.42